Cleveland Hopkins International Airport
KCLE : now visible

Airfield :











YOU CAN JOIN US ON...

 
LOGIN :

Register | Disclaimer

   EN    FR    IT 

 









Legend :    VFR   Marginal VFR   IFR   Intensive IFR   Very Intensive IFR
Visi :
Ceiling :
>= 8 km
>= 3000ft
5 to 8 km
1000 to 3000 ft
1500m to 5 km
500 to 1000 ft
800 to 1500m
200 to 500 ft
< 800m
< 200 ft
Symbols :   Thunderstorms  Fog  Heavy snow  Heavy precipitations  Wind > 20 kt






- Airport Elevation : 791 ft
- IATA code : CLE


KCLE - Cleveland Hopkins International

CURRENT METAR :
  • 270951Z 23009KT 10SM FEW025 SCT033 10/08 A2982 RMK AO2 SLP114 T01000078

EXPIRED METARs :
  • 270851Z 23010KT 10SM SCT037 SCT220 10/08 A2981 RMK AO2 SLP112 T01000078 52003
  • 270751Z 24011KT 10SM FEW032 SCT050 SCT065 10/08 A2981 RMK AO2 SLP111 T01000078

TAF KCLE
Valid from the 27 at 09:00 until the 28 at 12:00 UTC


270849Z 2709/2812 26011KT P6SM -SHRA BKN040
FM271200 29012G19KT P6SM -SHRA BKN040
FM280200 30011KT P6SM BKN035
KZOB FIR / North America



MET'MAP, your aeronautical weather chart ! - Copyright ORBIFLY December 2007 - Disclaimer

ORBIFLY MET'MAP TEAM :

Programming & Development : Alexandra Zaïnal
Original concept : Baudouin d'Aumeries
Technical & hardware support : Manuel Goepfert
Assistance : Marc-Olivier Méhu




SOURCES & CREDITS :

   NOAA       Earth
Advisory